Time;durP1;ratioP1;P1;durP2;ratioP2;P2;SDS_P1;SDS_P2;PMS_P1;PMS_P2;Temp;Humidity;BMP_temperature;BMP_pressure;BME280_temperature;BME280_humidity;BME280_pressure;Samples;Min_cycle;Max_cycle;Signal;HPM_P1;HPM_P2
2022/02/28 00:00:19;;;;;;;11.70;7.40;;;3.10;63.60;;;;;;4961332;28;20422;-73
2022/02/28 00:02:47;;;;;;;11.48;7.45;;;3.20;63.70;;;;;;4965546;28;20041;-73
2022/02/28 00:05:13;;;;;;;10.30;6.43;;;3.40;63.20;;;;;;4975093;28;20039;-73
2022/02/28 00:07:39;;;;;;;11.55;6.53;;;3.40;62.80;;;;;;4962363;28;20031;-73
2022/02/28 00:10:06;;;;;;;11.07;6.05;;;3.50;62.80;;;;;;4945781;28;20050;-73
2022/02/28 00:12:32;;;;;;;10.07;5.93;;;3.60;62.30;;;;;;4961530;28;20276;-73
2022/02/28 00:14:58;;;;;;;11.65;5.72;;;3.70;62.00;;;;;;4961910;28;20085;-73
2022/02/28 00:17:23;;;;;;;9.75;6.05;;;3.70;61.80;;;;;;4963276;28;20539;-74
2022/02/28 00:19:49;;;;;;;9.80;5.82;;;3.80;61.70;;;;;;4959452;28;20042;-75
2022/02/28 00:22:15;;;;;;;12.30;7.30;;;3.90;61.70;;;;;;4964351;28;20058;-74
2022/02/28 00:24:40;;;;;;;11.27;6.47;;;3.90;62.00;;;;;;4961554;28;20402;-74
2022/02/28 00:27:06;;;;;;;11.55;6.45;;;3.90;61.90;;;;;;4959399;28;20134;-74
2022/02/28 00:29:32;;;;;;;14.27;7.95;;;3.90;61.90;;;;;;4961760;28;20067;-73
2022/02/28 00:31:57;;;;;;;13.95;8.50;;;4.00;62.00;;;;;;4960988;28;20046;-72
2022/02/28 00:34:23;;;;;;;12.15;8.13;;;3.90;62.10;;;;;;4962800;28;20062;-73
2022/02/28 00:36:49;;;;;;;11.13;7.60;;;3.90;62.20;;;;;;4958988;28;20398;-73
2022/02/28 00:39:14;;;;;;;11.30;6.57;;;3.90;62.50;;;;;;4964464;28;20039;-74
2022/02/28 00:41:40;;;;;;;13.75;7.85;;;3.90;62.70;;;;;;4959470;28;20039;-74
2022/02/28 00:44:06;;;;;;;14.07;8.10;;;3.80;62.50;;;;;;4963926;28;20043;-74
2022/02/28 00:46:31;;;;;;;11.73;6.90;;;3.80;62.90;;;;;;4960990;28;20058;-74
2022/02/28 00:48:57;;;;;;;11.15;6.15;;;3.80;62.70;;;;;;4966452;28;20104;-74
2022/02/28 00:51:23;;;;;;;11.48;6.13;;;3.80;63.00;;;;;;4962276;28;20413;-74
2022/02/28 00:53:48;;;;;;;12.35;7.40;;;3.80;63.30;;;;;;4961019;28;20050;-73
2022/02/28 00:56:14;;;;;;;10.45;5.97;;;3.80;63.20;;;;;;4960661;28;20430;-73
2022/02/28 00:58:40;;;;;;;11.52;6.97;;;3.80;63.30;;;;;;4958627;28;20054;-73
2022/02/28 01:01:05;;;;;;;13.65;6.88;;;3.80;63.50;;;;;;4963474;28;20035;-74
2022/02/28 01:03:31;;;;;;;12.88;7.20;;;3.80;63.80;;;;;;4963458;28;20038;-74
2022/02/28 01:05:58;;;;;;;11.18;7.13;;;3.70;63.90;;;;;;4960443;28;20093;-74
2022/02/28 01:08:24;;;;;;;13.55;7.57;;;3.70;64.10;;;;;;4962933;28;20129;-73
2022/02/28 01:10:50;;;;;;;10.88;7.07;;;3.70;64.20;;;;;;4960648;28;20113;-73
2022/02/28 01:13:15;;;;;;;12.88;6.15;;;3.70;64.40;;;;;;4960772;28;20034;-73
2022/02/28 01:15:41;;;;;;;12.43;6.97;;;3.60;64.50;;;;;;4951401;28;20097;-73
2022/02/28 01:18:10;;;;;;;12.07;6.43;;;3.60;64.90;;;;;;4967695;28;20046;-74
2022/02/28 01:20:36;;;;;;;13.48;7.72;;;3.60;64.90;;;;;;4966767;28;20049;-74
2022/02/28 01:23:03;;;;;;;14.60;6.97;;;3.60;64.90;;;;;;4946745;28;20045;-74
2022/02/28 01:25:29;;;;;;;14.95;7.18;;;3.50;65.10;;;;;;4958720;28;20047;-73
2022/02/28 01:27:55;;;;;;;12.02;6.32;;;3.50;65.10;;;;;;4963601;28;20046;-73
2022/02/28 01:30:21;;;;;;;10.88;6.13;;;3.50;65.30;;;;;;4957511;28;20051;-73
2022/02/28 01:32:47;;;;;;;10.15;6.35;;;3.50;65.30;;;;;;4962047;28;20039;-73
2022/02/28 01:35:12;;;;;;;12.18;6.50;;;3.60;65.00;;;;;;4959714;28;20050;-74
2022/02/28 01:37:39;;;;;;;9.25;6.15;;;3.60;64.80;;;;;;4944712;28;20055;-73
2022/02/28 01:40:07;;;;;;;12.15;7.20;;;3.50;65.00;;;;;;4964353;28;20042;-72
2022/02/28 01:42:33;;;;;;;12.57;7.00;;;3.50;65.40;;;;;;4966641;28;20046;-73
2022/02/28 01:44:59;;;;;;;11.38;6.47;;;3.40;65.40;;;;;;4961906;28;20038;-73
2022/02/28 01:47:24;;;;;;;12.23;6.80;;;3.40;65.50;;;;;;4964529;28;20602;-73
2022/02/28 01:49:50;;;;;;;11.70;6.90;;;3.40;65.70;;;;;;4958807;28;20114;-73
2022/02/28 01:52:16;;;;;;;13.63;7.47;;;3.30;66.00;;;;;;4949065;28;20526;-73
2022/02/28 01:54:44;;;;;;;11.80;6.15;;;3.30;66.00;;;;;;4973605;28;20047;-73
2022/02/28 01:57:10;;;;;;;11.30;6.43;;;3.20;66.30;;;;;;4959950;28;20158;-74
2022/02/28 01:59:35;;;;;;;12.77;7.20;;;3.20;66.40;;;;;;4977718;28;20046;-74
2022/02/28 02:02:01;;;;;;;12.18;6.82;;;3.10;66.40;;;;;;4947938;28;20150;-76
2022/02/28 02:04:27;;;;;;;10.82;6.68;;;3.10;66.60;;;;;;4941285;28;20383;-74
2022/02/28 02:06:53;;;;;;;12.95;7.25;;;2.90;66.80;;;;;;4959527;28;20031;-74
2022/02/28 02:09:19;;;;;;;11.40;7.13;;;2.80;66.90;;;;;;4959531;28;20061;-74
2022/02/28 02:11:45;;;;;;;12.57;6.65;;;2.60;67.20;;;;;;4962089;28;20055;-74
2022/02/28 02:14:11;;;;;;;11.18;7.00;;;2.50;67.60;;;;;;4968455;28;20038;-73
2022/02/28 02:16:38;;;;;;;13.50;6.80;;;2.40;68.10;;;;;;4961692;28;20043;-73
2022/02/28 02:19:04;;;;;;;13.23;7.75;;;2.20;68.40;;;;;;4960563;28;20053;-74
2022/02/28 02:21:31;;;;;;;13.77;8.10;;;2.20;69.10;;;;;;4969385;28;20027;-74
2022/02/28 02:23:57;;;;;;;14.20;7.90;;;2.20;69.50;;;;;;4941075;28;20035;-74
2022/02/28 02:26:22;;;;;;;11.98;7.68;;;2.10;69.80;;;;;;4965054;28;20114;-74
2022/02/28 02:28:48;;;;;;;11.85;6.97;;;2.10;69.80;;;;;;4942469;28;20109;-74
2022/02/28 02:31:14;;;;;;;14.30;7.53;;;2.10;70.20;;;;;;4963976;28;20043;-74
2022/02/28 02:33:39;;;;;;;10.60;7.30;;;2.10;70.10;;;;;;4961375;28;20214;-73
2022/02/28 02:36:07;;;;;;;12.10;7.90;;;2.10;70.10;;;;;;4961341;28;20049;-75
2022/02/28 02:38:35;;;;;;;13.00;7.93;;;2.00;70.10;;;;;;4956935;28;20543;-74
2022/02/28 02:41:02;;;;;;;13.25;7.47;;;2.00;70.40;;;;;;4954641;28;20035;-75
2022/02/28 02:43:28;;;;;;;11.68;7.07;;;1.90;70.50;;;;;;4973237;28;20509;-74
2022/02/28 02:45:54;;;;;;;10.65;7.10;;;1.90;70.80;;;;;;4944707;28;20047;-74
2022/02/28 02:48:22;;;;;;;11.80;7.57;;;1.90;70.90;;;;;;4958014;28;20038;-74
2022/02/28 02:50:48;;;;;;;12.52;7.75;;;1.80;71.20;;;;;;4961613;28;20035;-75
2022/02/28 02:53:14;;;;;;;11.75;7.35;;;1.90;71.50;;;;;;4960531;28;20039;-75
2022/02/28 02:55:40;;;;;;;12.05;6.97;;;1.90;71.40;;;;;;4967715;28;20489;-74
2022/02/28 02:58:07;;;;;;;12.00;7.32;;;2.00;71.30;;;;;;4957823;28;20046;-74
2022/02/28 03:00:34;;;;;;;13.32;7.43;;;1.90;71.10;;;;;;4958902;28;20043;-74
2022/02/28 03:02:59;;;;;;;12.48;7.13;;;2.00;71.30;;;;;;4968658;28;20498;-74
2022/02/28 03:05:25;;;;;;;11.35;7.95;;;2.10;70.90;;;;;;4962402;28;20019;-73
2022/02/28 03:07:51;;;;;;;13.60;7.60;;;2.10;70.80;;;;;;4964014;28;20451;-74
2022/02/28 03:10:16;;;;;;;12.95;7.78;;;2.00;70.80;;;;;;4960809;28;20159;-74
2022/02/28 03:12:43;;;;;;;13.10;7.40;;;2.10;70.70;;;;;;4969318;28;20426;-74
2022/02/28 03:15:09;;;;;;;12.73;7.22;;;2.10;70.60;;;;;;4964577;28;20035;-74
2022/02/28 03:17:34;;;;;;;12.43;7.47;;;2.10;70.60;;;;;;4976201;28;20074;-74
2022/02/28 03:20:00;;;;;;;10.95;6.88;;;2.00;70.60;;;;;;4967464;28;20042;-73
2022/02/28 03:22:26;;;;;;;13.02;7.18;;;2.10;70.70;;;;;;4961321;28;20117;-73
2022/02/28 03:24:54;;;;;;;11.02;7.00;;;2.00;70.60;;;;;;4966119;28;20096;-73
2022/02/28 03:27:20;;;;;;;14.23;7.82;;;2.00;70.60;;;;;;4965976;28;20027;-73
2022/02/28 03:29:46;;;;;;;12.52;7.63;;;2.10;70.70;;;;;;4962953;28;20027;-74
2022/02/28 03:32:11;;;;;;;11.93;6.93;;;2.10;70.80;;;;;;4941155;28;20038;-74
2022/02/28 03:34:37;;;;;;;12.68;6.85;;;2.10;70.70;;;;;;4962805;28;20129;-73
2022/02/28 03:37:03;;;;;;;13.50;7.40;;;2.10;70.60;;;;;;4964704;28;20577;-74
2022/02/28 03:39:29;;;;;;;12.57;7.13;;;2.10;70.60;;;;;;4958039;28;20038;-74
2022/02/28 03:41:54;;;;;;;13.15;6.88;;;2.10;70.70;;;;;;4979767;28;20035;-73
2022/02/28 03:44:21;;;;;;;11.90;7.50;;;2.10;70.50;;;;;;4960305;28;20474;-74
2022/02/28 03:46:48;;;;;;;12.80;7.38;;;2.10;70.50;;;;;;4972318;28;20536;-74
2022/02/28 03:49:15;;;;;;;11.45;7.32;;;2.10;70.50;;;;;;4961655;28;20078;-74
2022/02/28 03:51:40;;;;;;;10.98;7.03;;;2.10;70.60;;;;;;4966989;28;20026;-74
2022/02/28 03:54:10;;;;;;;11.77;7.18;;;2.00;70.60;;;;;;4944152;28;20065;-74
2022/02/28 03:56:40;;;;;;;11.38;6.85;;;2.00;70.60;;;;;;4962330;28;20035;-74
2022/02/28 03:59:07;;;;;;;12.55;7.05;;;2.00;70.50;;;;;;4961788;28;20158;-74
2022/02/28 04:01:32;;;;;;;13.00;7.43;;;1.90;70.60;;;;;;4950109;28;20043;-73
2022/02/28 04:03:58;;;;;;;12.18;7.32;;;1.90;70.80;;;;;;4942279;28;20406;-74
2022/02/28 04:06:24;;;;;;;14.15;7.68;;;1.80;70.90;;;;;;4964891;28;20039;-73
2022/02/28 04:08:50;;;;;;;12.43;7.40;;;1.70;71.00;;;;;;4976526;28;20375;-74
2022/02/28 04:11:16;;;;;;;15.02;8.48;;;1.60;71.20;;;;;;4949630;28;20122;-74
2022/02/28 04:13:42;;;;;;;12.88;7.90;;;1.60;71.50;;;;;;4959016;28;20093;-74
2022/02/28 04:16:07;;;;;;;15.25;8.73;;;1.60;71.50;;;;;;4969947;28;20055;-75
2022/02/28 04:18:33;;;;;;;11.68;7.35;;;1.60;72.00;;;;;;4962267;28;20034;-75
2022/02/28 04:20:59;;;;;;;13.90;8.23;;;1.50;72.10;;;;;;4979525;28;20525;-75
2022/02/28 04:23:25;;;;;;;12.25;7.70;;;1.50;72.20;;;;;;4968417;28;20027;-74
2022/02/28 04:25:51;;;;;;;13.32;8.07;;;1.50;72.10;;;;;;4969481;28;20030;-73
2022/02/28 04:28:16;;;;;;;11.35;7.38;;;1.40;72.10;;;;;;4962202;28;20035;-74
2022/02/28 04:30:42;;;;;;;12.23;8.02;;;1.40;72.20;;;;;;4961461;28;20478;-74
2022/02/28 04:33:08;;;;;;;15.73;8.18;;;1.30;72.30;;;;;;4969681;28;20061;-72
2022/02/28 04:35:34;;;;;;;12.48;8.07;;;1.30;72.30;;;;;;4963662;28;20031;-72
2022/02/28 04:38:03;;;;;;;12.45;7.80;;;1.30;72.70;;;;;;4966122;28;20031;-72
2022/02/28 04:40:28;;;;;;;11.85;7.82;;;1.20;72.80;;;;;;4944730;28;20386;-73
2022/02/28 04:42:54;;;;;;;14.80;7.82;;;1.20;72.90;;;;;;4961666;28;20034;-73
2022/02/28 04:45:20;;;;;;;13.15;8.00;;;1.20;73.00;;;;;;4962503;28;20069;-73
2022/02/28 04:47:45;;;;;;;12.13;7.90;;;1.20;73.00;;;;;;4947653;28;20043;-73
2022/02/28 04:50:11;;;;;;;14.10;8.50;;;1.20;73.20;;;;;;4962830;28;20455;-73
2022/02/28 04:52:37;;;;;;;12.75;7.25;;;1.20;73.20;;;;;;4964467;28;20039;-73
2022/02/28 04:55:03;;;;;;;11.18;6.93;;;1.20;73.10;;;;;;4962451;28;20050;-73
2022/02/28 04:57:34;;;;;;;11.32;7.50;;;1.20;73.00;;;;;;4958722;28;20345;-73
2022/02/28 05:00:00;;;;;;;12.38;8.13;;;1.20;73.00;;;;;;4949736;28;20038;-74
2022/02/28 05:02:26;;;;;;;14.55;7.88;;;1.30;73.00;;;;;;4963105;28;20484;-74
2022/02/28 05:04:51;;;;;;;10.88;8.05;;;1.20;72.90;;;;;;4971566;28;20117;-73
2022/02/28 05:07:17;;;;;;;13.85;8.02;;;1.30;72.90;;;;;;4964152;28;20046;-73
2022/02/28 05:09:42;;;;;;;14.82;7.78;;;1.20;73.00;;;;;;4965415;28;20042;-73
2022/02/28 05:12:08;;;;;;;14.32;8.10;;;1.20;72.90;;;;;;4949576;28;20202;-74
2022/02/28 05:14:34;;;;;;;11.35;7.72;;;1.20;73.00;;;;;;4964158;28;20034;-74
2022/02/28 05:16:59;;;;;;;14.15;8.23;;;1.20;72.90;;;;;;4976421;28;20050;-74
2022/02/28 05:19:25;;;;;;;12.00;8.32;;;1.20;73.10;;;;;;4963149;28;20622;-74
2022/02/28 05:21:51;;;;;;;13.07;7.85;;;1.20;73.10;;;;;;4961869;28;20034;-74
2022/02/28 05:24:16;;;;;;;13.35;8.73;;;1.20;73.20;;;;;;4960877;28;20038;-73
2022/02/28 05:26:42;;;;;;;15.02;9.35;;;1.10;73.20;;;;;;4969266;28;20391;-74
2022/02/28 05:29:07;;;;;;;13.60;8.00;;;1.10;73.20;;;;;;4964666;28;20495;-74
2022/02/28 05:31:33;;;;;;;12.07;8.23;;;1.10;73.20;;;;;;4960384;28;20093;-74
2022/02/28 05:33:59;;;;;;;13.02;8.35;;;1.10;73.20;;;;;;4959062;28;20139;-74
2022/02/28 05:36:24;;;;;;;13.43;8.27;;;1.10;73.20;;;;;;4953553;28;20043;-74
2022/02/28 05:38:50;;;;;;;18.88;9.38;;;1.10;73.20;;;;;;4960591;28;20039;-74
2022/02/28 05:41:15;;;;;;;14.88;9.00;;;1.10;73.30;;;;;;4961865;28;20043;-74
2022/02/28 05:43:42;;;;;;;14.43;8.35;;;1.10;73.20;;;;;;4961582;28;20027;-74
2022/02/28 05:46:10;;;;;;;17.08;9.88;;;1.10;73.20;;;;;;4950093;28;20043;-74
2022/02/28 05:48:35;;;;;;;15.70;9.10;;;1.10;73.10;;;;;;4960006;28;20368;-74
2022/02/28 05:51:01;;;;;;;13.38;8.50;;;1.10;73.40;;;;;;4958980;28;20085;-74
2022/02/28 05:53:27;;;;;;;14.18;8.82;;;1.10;73.10;;;;;;4968338;28;20539;-74
2022/02/28 05:55:52;;;;;;;16.10;8.90;;;1.10;73.00;;;;;;4961178;28;20286;-74
2022/02/28 05:58:18;;;;;;;15.55;9.98;;;1.10;73.10;;;;;;4958606;28;20455;-74
2022/02/28 06:00:44;;;;;;;16.30;8.88;;;1.10;73.10;;;;;;4962307;28;20042;-74
2022/02/28 06:03:09;;;;;;;12.82;8.90;;;1.10;73.10;;;;;;4964269;28;20551;-74
2022/02/28 06:05:35;;;;;;;15.68;9.02;;;1.00;73.30;;;;;;4959512;28;20039;-74
2022/02/28 06:08:01;;;;;;;14.30;9.40;;;1.00;73.40;;;;;;4960419;28;20602;-75
2022/02/28 06:10:27;;;;;;;15.15;9.40;;;1.00;73.50;;;;;;4967799;28;20045;-74
2022/02/28 06:12:52;;;;;;;12.95;8.70;;;1.00;73.60;;;;;;4959204;28;20057;-74
2022/02/28 06:15:18;;;;;;;13.95;8.70;;;1.00;73.80;;;;;;4959611;28;20049;-74
2022/02/28 06:17:43;;;;;;;13.60;9.15;;;0.90;73.90;;;;;;4967051;28;20047;-74
2022/02/28 06:20:11;;;;;;;16.73;10.50;;;1.00;73.90;;;;;;4962417;28;20111;-74
2022/02/28 06:22:36;;;;;;;13.32;8.98;;;1.00;74.10;;;;;;4954760;28;20027;-74
2022/02/28 06:25:03;;;;;;;16.00;9.18;;;1.00;73.80;;;;;;4954558;28;20042;-75
2022/02/28 06:27:29;;;;;;;15.73;9.05;;;1.00;73.70;;;;;;4954768;28;20134;-75
2022/02/28 06:29:55;;;;;;;14.23;9.60;;;1.10;73.70;;;;;;4953528;28;20046;-74
2022/02/28 06:32:20;;;;;;;13.23;8.93;;;1.10;73.50;;;;;;4951491;28;20039;-74
2022/02/28 06:34:46;;;;;;;17.15;9.10;;;1.10;73.60;;;;;;4947170;28;20031;-74
2022/02/28 06:37:12;;;;;;;16.45;9.38;;;1.10;73.40;;;;;;4945652;28;20043;-74
2022/02/28 06:39:38;;;;;;;16.65;10.35;;;1.10;73.40;;;;;;4950544;28;20375;-74
2022/02/28 06:42:04;;;;;;;15.35;8.98;;;1.10;73.60;;;;;;4951134;28;20119;-75
2022/02/28 06:44:30;;;;;;;17.40;10.35;;;1.20;73.40;;;;;;4946490;28;20362;-74
2022/02/28 06:46:56;;;;;;;13.65;9.00;;;1.30;73.20;;;;;;4959416;28;20031;-74
2022/02/28 06:49:22;;;;;;;17.02;9.48;;;1.30;73.10;;;;;;4949313;28;20142;-75
2022/02/28 06:51:48;;;;;;;15.88;10.35;;;1.30;73.30;;;;;;4964324;28;20460;-75
2022/02/28 06:54:15;;;;;;;18.15;9.70;;;1.40;73.10;;;;;;4950074;28;20747;-75
2022/02/28 06:56:41;;;;;;;15.75;9.57;;;1.40;72.90;;;;;;4954720;28;20534;-75
2022/02/28 06:59:07;;;;;;;16.55;9.70;;;1.40;72.90;;;;;;4947863;28;20482;-75
2022/02/28 07:01:35;;;;;;;18.15;9.52;;;1.50;72.80;;;;;;4949349;28;20034;-73
2022/02/28 07:04:01;;;;;;;17.85;9.98;;;1.50;72.80;;;;;;4949088;28;20046;-75
2022/02/28 07:06:28;;;;;;;16.45;9.82;;;1.60;72.60;;;;;;4956822;28;20316;-76
2022/02/28 07:08:54;;;;;;;18.15;10.60;;;1.60;72.60;;;;;;4946407;28;20070;-74
2022/02/28 07:11:20;;;;;;;15.75;9.40;;;1.60;72.50;;;;;;4945821;28;20051;-74
2022/02/28 07:13:46;;;;;;;15.38;10.10;;;1.60;72.50;;;;;;4948408;28;20657;-73
2022/02/28 07:16:11;;;;;;;16.15;9.98;;;1.70;72.30;;;;;;4962785;28;20457;-75
2022/02/28 07:18:37;;;;;;;15.68;9.75;;;1.80;72.10;;;;;;4948932;28;20035;-73
2022/02/28 07:21:03;;;;;;;14.82;9.07;;;1.90;71.70;;;;;;4952900;28;20047;-74
2022/02/28 07:23:28;;;;;;;18.80;10.02;;;2.00;71.30;;;;;;4947511;28;20035;-73
2022/02/28 07:25:54;;;;;;;15.07;9.85;;;2.00;71.10;;;;;;4955283;28;20062;-73
2022/02/28 07:28:20;;;;;;;14.00;9.32;;;2.10;70.90;;;;;;4945927;28;20043;-74
2022/02/28 07:30:46;;;;;;;17.63;10.10;;;2.20;70.40;;;;;;4945024;28;20047;-72
2022/02/28 07:33:11;;;;;;;15.43;9.30;;;2.30;70.20;;;;;;4947787;28;20319;-73
2022/02/28 07:35:37;;;;;;;16.17;9.45;;;2.40;70.20;;;;;;4948790;28;20560;-73
2022/02/28 07:38:03;;;;;;;15.48;9.30;;;2.40;70.30;;;;;;4946316;28;20496;-81
2022/02/28 07:40:29;;;;;;;19.52;9.82;;;2.50;69.80;;;;;;4947024;28;20074;-78
2022/02/28 07:42:55;;;;;;;16.75;10.23;;;2.50;69.80;;;;;;4951127;28;20130;-81
2022/02/28 07:45:24;;;;;;;15.50;9.45;;;2.60;69.50;;;;;;4957231;28;20386;-80
2022/02/28 07:47:50;;;;;;;16.83;10.02;;;2.70;69.10;;;;;;4952088;28;20065;-80
2022/02/28 07:50:15;;;;;;;16.15;9.10;;;2.80;68.80;;;;;;4937027;28;20486;-80
2022/02/28 07:52:41;;;;;;;16.13;10.05;;;2.80;68.40;;;;;;4940351;28;20051;-80
2022/02/28 07:55:07;;;;;;;17.48;9.75;;;2.90;68.30;;;;;;4956066;28;20553;-79
2022/02/28 07:57:33;;;;;;;14.55;9.07;;;3.00;68.40;;;;;;4962853;28;20134;-78
2022/02/28 07:59:59;;;;;;;18.08;10.02;;;3.00;68.10;;;;;;4955376;28;20101;-80
2022/02/28 08:02:25;;;;;;;16.50;9.75;;;3.10;67.40;;;;;;4953254;28;20102;-80
2022/02/28 08:04:51;;;;;;;18.17;10.07;;;3.20;66.80;;;;;;4961320;28;20521;-80
2022/02/28 08:07:17;;;;;;;13.88;9.00;;;3.40;65.90;;;;;;4962338;28;20585;-79
2022/02/28 08:09:43;;;;;;;15.27;9.40;;;3.50;65.50;;;;;;4942269;28;21210;-79
2022/02/28 08:12:08;;;;;;;17.52;10.63;;;3.60;65.40;;;;;;4954767;28;20038;-80
2022/02/28 08:14:35;;;;;;;16.67;9.45;;;3.70;64.90;;;;;;4959927;28;20038;-81
2022/02/28 08:17:01;;;;;;;14.00;9.77;;;3.80;64.60;;;;;;4961853;28;20055;-78
2022/02/28 08:19:27;;;;;;;19.63;11.43;;;3.90;64.30;;;;;;4969076;28;20038;-77
2022/02/28 08:21:52;;;;;;;15.98;9.55;;;4.00;63.50;;;;;;4955072;28;20620;-76
2022/02/28 08:24:18;;;;;;;17.23;9.98;;;4.20;63.30;;;;;;4963284;28;20074;-78
2022/02/28 08:26:44;;;;;;;24.27;9.80;;;4.30;62.80;;;;;;4973342;28;20073;-76
2022/02/28 08:29:10;;;;;;;16.30;9.05;;;4.50;62.50;;;;;;4955567;28;20581;-79
2022/02/28 08:31:36;;;;;;;15.65;9.13;;;4.60;62.50;;;;;;4955837;28;20824;-81
2022/02/28 08:34:01;;;;;;;15.52;9.27;;;4.70;62.20;;;;;;4956287;28;20394;-78
2022/02/28 08:36:27;;;;;;;13.40;9.38;;;4.90;61.40;;;;;;4962560;28;20114;-77
2022/02/28 08:38:53;;;;;;;16.30;8.82;;;5.10;61.20;;;;;;4962899;28;20555;-78
2022/02/28 08:41:19;;;;;;;15.70;9.70;;;5.30;60.70;;;;;;4952726;28;20046;-78
2022/02/28 08:43:45;;;;;;;19.50;9.65;;;5.40;59.50;;;;;;4967880;28;20426;-80
2022/02/28 08:46:10;;;;;;;14.25;9.25;;;5.50;59.10;;;;;;4954301;28;20142;-82
2022/02/28 08:48:36;;;;;;;15.10;9.82;;;5.70;58.90;;;;;;4954849;28;20027;-78
2022/02/28 08:51:03;;;;;;;14.60;8.60;;;5.90;58.00;;;;;;4955579;28;20074;-78
2022/02/28 08:53:28;;;;;;;13.57;8.85;;;6.10;57.00;;;;;;4940902;28;20042;-78
2022/02/28 08:55:54;;;;;;;18.13;9.35;;;6.20;56.90;;;;;;4956550;28;20494;-79
2022/02/28 08:58:23;;;;;;;14.00;9.13;;;6.30;55.70;;;;;;4955032;28;20038;-79
2022/02/28 09:00:49;;;;;;;15.88;9.50;;;6.40;55.70;;;;;;4958901;28;20410;-79
2022/02/28 09:03:15;;;;;;;14.15;8.73;;;6.50;55.30;;;;;;4952501;28;20035;-80
2022/02/28 09:05:41;;;;;;;17.42;10.32;;;6.60;55.30;;;;;;4953843;28;20042;-77
2022/02/28 09:08:06;;;;;;;15.50;9.27;;;6.60;55.10;;;;;;4959006;28;20035;-77
2022/02/28 09:10:32;;;;;;;15.63;9.27;;;6.70;54.90;;;;;;4953177;28;20054;-77
2022/02/28 09:12:58;;;;;;;16.35;9.93;;;6.80;53.80;;;;;;4953103;28;20185;-77
2022/02/28 09:15:23;;;;;;;19.40;10.27;;;6.90;54.00;;;;;;4956073;28;20439;-77
2022/02/28 09:17:49;;;;;;;14.82;9.75;;;7.00;54.00;;;;;;4957150;28;20362;-78
2022/02/28 09:20:15;;;;;;;16.55;9.93;;;7.10;53.70;;;;;;4973492;28;20480;-75
2022/02/28 09:22:41;;;;;;;14.75;9.30;;;7.20;53.00;;;;;;4964873;28;20039;-76
2022/02/28 09:25:07;;;;;;;12.88;9.13;;;7.30;52.70;;;;;;4957507;28;20039;-77
2022/02/28 09:27:33;;;;;;;18.80;9.82;;;7.40;52.60;;;;;;4958783;28;20030;-78
2022/02/28 09:29:59;;;;;;;16.95;9.73;;;7.60;52.70;;;;;;4946141;28;20053;-82
2022/02/28 09:32:25;;;;;;;14.77;10.05;;;7.60;52.20;;;;;;4950704;28;20043;-81
2022/02/28 09:34:51;;;;;;;16.45;9.45;;;7.70;52.50;;;;;;4955085;28;20460;-78
2022/02/28 09:37:16;;;;;;;14.13;9.73;;;7.80;51.70;;;;;;4961015;28;20808;-78
2022/02/28 09:39:42;;;;;;;17.30;9.50;;;7.80;51.60;;;;;;4958526;28;20562;-79
2022/02/28 09:42:08;;;;;;;14.73;9.50;;;8.10;51.70;;;;;;4969872;28;20042;-79
2022/02/28 09:44:34;;;;;;;15.10;9.88;;;8.20;50.60;;;;;;4963032;28;20034;-80
2022/02/28 09:47:00;;;;;;;14.75;9.60;;;8.30;51.30;;;;;;4970271;28;20038;-82
2022/02/28 09:49:26;;;;;;;17.00;10.25;;;8.30;50.70;;;;;;4959742;28;20050;-84
2022/02/28 09:51:52;;;;;;;13.75;9.32;;;8.30;50.80;;;;;;4962230;28;20482;-82
2022/02/28 09:54:19;;;;;;;14.57;9.10;;;8.50;50.50;;;;;;4960994;28;20176;-79
2022/02/28 09:56:44;;;;;;;13.93;9.13;;;8.70;50.00;;;;;;4964858;28;20027;-78
2022/02/28 09:59:10;;;;;;;16.13;9.23;;;8.80;50.10;;;;;;4966378;28;20363;-80
2022/02/28 10:01:36;;;;;;;17.52;9.50;;;9.00;49.60;;;;;;4962301;28;20096;-78
2022/02/28 10:04:02;;;;;;;17.75;9.48;;;9.00;49.10;;;;;;4960266;28;20046;-77
2022/02/28 10:06:27;;;;;;;14.45;10.00;;;9.00;49.10;;;;;;4974170;28;20031;-77
2022/02/28 10:08:59;;;;;;;13.48;8.68;;;8.90;48.40;;;;;;4968613;28;20321;-77
2022/02/28 10:11:41;;;;;;;16.25;9.05;;;9.00;48.60;;;;;;4959002;28;20050;-72
2022/02/28 10:14:09;;;;;;;15.02;8.55;;;9.40;49.20;;;;;;4960620;28;20591;-72
2022/02/28 10:16:40;;;;;;;13.43;9.00;;;9.60;47.60;;;;;;4964444;28;20043;-72
2022/02/28 10:19:11;;;;;;;15.57;9.50;;;9.80;48.10;;;;;;4956352;28;20129;-71
2022/02/28 10:21:47;;;;;;;14.52;9.43;;;10.10;47.40;;;;;;4959770;28;20510;-72
2022/02/28 10:24:33;;;;;;;14.00;8.93;;;10.30;46.40;;;;;;4969847;28;20371;-72
2022/02/28 10:26:58;;;;;;;13.77;9.35;;;10.40;45.00;;;;;;4959119;28;20066;-72
2022/02/28 10:29:30;;;;;;;13.65;9.20;;;10.40;45.60;;;;;;4957516;28;20314;-72
2022/02/28 10:32:01;;;;;;;13.15;9.30;;;10.60;45.50;;;;;;4962176;28;20054;-71
2022/02/28 10:34:30;;;;;;;13.77;9.40;;;10.60;44.60;;;;;;4958995;28;20046;-72
2022/02/28 10:36:58;;;;;;;12.93;8.98;;;10.50;45.00;;;;;;4961453;28;20045;-70
2022/02/28 10:39:28;;;;;;;14.95;9.85;;;10.50;44.90;;;;;;4959798;28;20531;-71
2022/02/28 10:41:57;;;;;;;14.05;9.65;;;10.50;44.90;;;;;;4958349;28;20042;-78
2022/02/28 10:44:23;;;;;;;14.45;9.48;;;10.50;46.10;;;;;;4951374;28;20034;-77
2022/02/28 10:46:51;;;;;;;14.23;9.63;;;10.70;45.60;;;;;;4956119;28;20039;-79
2022/02/28 10:49:30;;;;;;;15.68;9.65;;;10.70;46.00;;;;;;4953478;28;20047;-80
2022/02/28 10:51:58;;;;;;;14.65;9.63;;;10.80;45.50;;;;;;4951300;28;20042;-81
2022/02/28 10:54:31;;;;;;;13.25;8.50;;;10.90;45.90;;;;;;4939747;28;20541;-79
2022/02/28 10:56:57;;;;;;;11.55;8.70;;;10.90;45.60;;;;;;4936865;28;20031;-78
2022/02/28 10:59:39;;;;;;;12.95;8.95;;;10.90;44.60;;;;;;4955081;28;20081;-78
2022/02/28 11:02:06;;;;;;;12.43;9.13;;;10.80;44.60;;;;;;4960859;28;20125;-81
2022/02/28 11:04:33;;;;;;;13.18;8.68;;;10.90;45.10;;;;;;4961298;28;20074;-79
2022/02/28 11:06:59;;;;;;;13.95;9.23;;;11.10;45.10;;;;;;4944473;28;20051;-80
2022/02/28 11:09:43;;;;;;;13.77;9.65;;;11.10;44.60;;;;;;4956211;28;20043;-80
2022/02/28 11:12:29;;;;;;;15.48;9.43;;;11.30;44.50;;;;;;4952016;28;20565;-81
2022/02/28 11:14:59;;;;;;;13.35;9.07;;;11.10;44.00;;;;;;4955116;28;20089;-76
2022/02/28 11:17:28;;;;;;;12.63;8.48;;;11.30;44.30;;;;;;4962187;28;20051;-82
2022/02/28 11:19:58;;;;;;;14.75;9.27;;;11.40;43.70;;;;;;4985929;28;20486;-82
2022/02/28 11:22:25;;;;;;;12.80;9.25;;;11.50;44.20;;;;;;4942537;28;20097;-81
2022/02/28 11:24:53;;;;;;;13.70;9.40;;;11.70;44.20;;;;;;4957688;28;20043;-82
2022/02/28 11:27:19;;;;;;;13.35;8.73;;;11.90;44.20;;;;;;4964297;28;20030;-81
2022/02/28 11:29:50;;;;;;;15.15;9.10;;;12.00;43.60;;;;;;4945483;28;20502;-81
2022/02/28 11:32:17;;;;;;;14.02;9.63;;;12.00;43.40;;;;;;4966356;28;20027;-80
2022/02/28 11:34:43;;;;;;;13.68;9.52;;;12.10;42.80;;;;;;4966401;28;20422;-81
2022/02/28 11:37:12;;;;;;;12.75;8.75;;;12.10;42.40;;;;;;4963049;28;20050;-80
2022/02/28 11:39:41;;;;;;;13.93;9.02;;;12.00;42.50;;;;;;4960852;28;20043;-82
2022/02/28 11:42:08;;;;;;;13.63;9.55;;;12.20;42.40;;;;;;4966291;28;20039;-79
2022/02/28 11:44:55;;;;;;;13.70;8.90;;;12.20;42.10;;;;;;4964958;28;20035;-79
2022/02/28 11:47:23;;;;;;;14.52;9.82;;;12.10;41.70;;;;;;4963605;28;20077;-80
2022/02/28 11:49:49;;;;;;;13.73;9.82;;;12.30;41.60;;;;;;4956558;28;20553;-80
2022/02/28 11:52:29;;;;;;;14.63;10.50;;;12.40;41.60;;;;;;4979381;28;20359;-78
2022/02/28 11:55:00;;;;;;;14.15;9.75;;;12.50;42.20;;;;;;4960697;28;20034;-79
2022/02/28 11:57:49;;;;;;;15.48;10.35;;;12.60;42.60;;;;;;4964611;28;20395;-79
2022/02/28 12:00:41;;;;;;;14.15;9.85;;;12.70;41.70;;;;;;4949568;28;20176;-82
2022/02/28 12:03:29;;;;;;;15.35;10.48;;;12.90;41.40;;;;;;4953742;28;20402;-80
2022/02/28 12:05:55;;;;;;;14.18;10.65;;;12.90;40.90;;;;;;4953694;28;20415;-79
2022/02/28 12:08:54;;;;;;;13.90;9.65;;;13.00;41.50;;;;;;4955615;28;20097;-79
2022/02/28 12:11:22;;;;;;;13.32;9.38;;;13.10;41.80;;;;;;4904780;28;20047;-79
2022/02/28 12:14:03;;;;;;;13.15;9.73;;;13.00;41.00;;;;;;4953376;28;20033;-79
2022/02/28 12:19:27;;;;;;;13.38;8.80;;;12.80;40.90;;;;;;4950297;28;20182;-77
2022/02/28 12:22:06;;;;;;;13.13;9.07;;;12.80;40.20;;;;;;4952531;28;20126;-77
2022/02/28 12:25:02;;;;;;;14.90;10.43;;;12.80;40.80;;;;;;4951014;28;20503;-77
2022/02/28 12:27:35;;;;;;;14.23;9.10;;;12.80;41.40;;;;;;4954180;28;20114;-77
2022/02/28 12:30:45;;;;;;;11.98;9.10;;;12.70;40.80;;;;;;4938576;28;20533;-77
2022/02/28 12:33:12;;;;;;;16.75;8.90;;;12.60;41.50;;;;;;4951808;28;20038;-77
2022/02/28 12:35:40;;;;;;;14.40;8.93;;;12.70;41.30;;;;;;4954622;28;20034;-78
2022/02/28 12:38:06;;;;;;;13.85;9.45;;;12.60;41.10;;;;;;4949575;28;20050;-78
2022/02/28 12:40:33;;;;;;;14.45;8.45;;;12.60;41.80;;;;;;4952978;28;20093;-78
2022/02/28 12:42:59;;;;;;;13.30;8.73;;;12.60;41.80;;;;;;4953390;28;20050;-78
2022/02/28 12:45:25;;;;;;;13.02;7.88;;;12.60;40.50;;;;;;4966774;28;20120;-77